sensor_id;sensor_type;location;lat;lon;timestamp;temperature;humidity
12413;DHT22;13877;18.896;-99.222;2023-03-23T00:00:00;33.30;9.80
12413;DHT22;13877;18.896;-99.222;2023-03-23T00:02:36;32.90;10.20
12413;DHT22;13877;18.896;-99.222;2023-03-23T00:05:08;32.60;11.00
12413;DHT22;13877;18.896;-99.222;2023-03-23T00:07:35;32.60;11.10
12413;DHT22;13877;18.896;-99.222;2023-03-23T00:10:03;32.20;11.00
12413;DHT22;13877;18.896;-99.222;2023-03-23T00:12:32;31.50;11.80
12413;DHT22;13877;18.896;-99.222;2023-03-23T00:15:07;30.80;13.00
12413;DHT22;13877;18.896;-99.222;2023-03-23T00:17:40;30.00;13.00
12413;DHT22;13877;18.896;-99.222;2023-03-23T00:20:07;29.60;13.60
12413;DHT22;13877;18.896;-99.222;2023-03-23T00:22:36;29.10;13.90
12413;DHT22;13877;18.896;-99.222;2023-03-23T00:25:05;28.80;13.70
12413;DHT22;13877;18.896;-99.222;2023-03-23T00:27:35;28.50;14.70
12413;DHT22;13877;18.896;-99.222;2023-03-23T00:30:03;28.30;14.50
12413;DHT22;13877;18.896;-99.222;2023-03-23T00:32:30;28.10;15.10
12413;DHT22;13877;18.896;-99.222;2023-03-23T00:34:58;27.90;15.80
12413;DHT22;13877;18.896;-99.222;2023-03-23T00:37:30;27.70;15.50
12413;DHT22;13877;18.896;-99.222;2023-03-23T00:39:58;27.50;14.90
12413;DHT22;13877;18.896;-99.222;2023-03-23T00:42:27;27.50;15.30
12413;DHT22;13877;18.896;-99.222;2023-03-23T00:44:54;27.40;14.90
12413;DHT22;13877;18.896;-99.222;2023-03-23T00:47:26;27.40;15.30
12413;DHT22;13877;18.896;-99.222;2023-03-23T00:49:53;27.30;16.30
12413;DHT22;13877;18.896;-99.222;2023-03-23T00:52:23;27.20;17.30
12413;DHT22;13877;18.896;-99.222;2023-03-23T00:54:50;26.90;17.70
12413;DHT22;13877;18.896;-99.222;2023-03-23T00:57:17;26.70;17.80
12413;DHT22;13877;18.896;-99.222;2023-03-23T00:59:44;26.50;17.70
12413;DHT22;13877;18.896;-99.222;2023-03-23T01:02:11;26.40;17.10
12413;DHT22;13877;18.896;-99.222;2023-03-23T01:04:41;26.60;16.00
12413;DHT22;13877;18.896;-99.222;2023-03-23T01:07:11;26.80;16.20
12413;DHT22;13877;18.896;-99.222;2023-03-23T01:09:44;26.90;16.30
12413;DHT22;13877;18.896;-99.222;2023-03-23T01:12:12;27.00;16.30
12413;DHT22;13877;18.896;-99.222;2023-03-23T01:14:39;27.00;16.20
12413;DHT22;13877;18.896;-99.222;2023-03-23T01:17:07;27.00;16.20
12413;DHT22;13877;18.896;-99.222;2023-03-23T01:19:34;27.00;16.60
12413;DHT22;13877;18.896;-99.222;2023-03-23T01:22:01;27.00;16.30
12413;DHT22;13877;18.896;-99.222;2023-03-23T01:24:29;26.90;16.70
12413;DHT22;13877;18.896;-99.222;2023-03-23T01:26:58;26.70;17.10
12413;DHT22;13877;18.896;-99.222;2023-03-23T01:29:28;26.60;17.80
12413;DHT22;13877;18.896;-99.222;2023-03-23T01:31:56;26.40;19.00
12413;DHT22;13877;18.896;-99.222;2023-03-23T01:34:24;26.40;19.00
12413;DHT22;13877;18.896;-99.222;2023-03-23T01:36:51;26.30;19.50
12413;DHT22;13877;18.896;-99.222;2023-03-23T01:39:18;26.10;20.00
12413;DHT22;13877;18.896;-99.222;2023-03-23T01:41:46;26.00;20.30
12413;DHT22;13877;18.896;-99.222;2023-03-23T01:46:53;25.90;20.70
12413;DHT22;13877;18.896;-99.222;2023-03-23T01:49:25;25.80;21.10
12413;DHT22;13877;18.896;-99.222;2023-03-23T01:51:56;25.70;21.10
12413;DHT22;13877;18.896;-99.222;2023-03-23T01:54:26;25.60;21.20
12413;DHT22;13877;18.896;-99.222;2023-03-23T01:57:00;25.60;21.20
12413;DHT22;13877;18.896;-99.222;2023-03-23T01:59:29;25.50;21.10
12413;DHT22;13877;18.896;-99.222;2023-03-23T02:02:21;25.50;21.10
12413;DHT22;13877;18.896;-99.222;2023-03-23T02:04:49;25.40;21.20
12413;DHT22;13877;18.896;-99.222;2023-03-23T02:07:20;25.30;20.90
12413;DHT22;13877;18.896;-99.222;2023-03-23T02:09:51;25.30;20.90
12413;DHT22;13877;18.896;-99.222;2023-03-23T02:12:18;25.40;20.80
12413;DHT22;13877;18.896;-99.222;2023-03-23T02:14:49;25.30;20.70
12413;DHT22;13877;18.896;-99.222;2023-03-23T02:17:25;25.30;20.70
12413;DHT22;13877;18.896;-99.222;2023-03-23T02:20:31;25.30;20.90
12413;DHT22;13877;18.896;-99.222;2023-03-23T02:29:07;25.30;20.50
12413;DHT22;13877;18.896;-99.222;2023-03-23T02:34:35;25.30;20.20
12413;DHT22;13877;18.896;-99.222;2023-03-23T02:37:38;25.30;20.30
12413;DHT22;13877;18.896;-99.222;2023-03-23T02:40:14;25.30;20.30
12413;DHT22;13877;18.896;-99.222;2023-03-23T02:42:48;25.20;20.40
12413;DHT22;13877;18.896;-99.222;2023-03-23T02:45:20;25.20;20.10
12413;DHT22;13877;18.896;-99.222;2023-03-23T02:47:50;25.20;20.00
12413;DHT22;13877;18.896;-99.222;2023-03-23T02:50:21;25.30;20.00
12413;DHT22;13877;18.896;-99.222;2023-03-23T02:52:50;25.30;19.90
12413;DHT22;13877;18.896;-99.222;2023-03-23T02:55:19;25.20;19.90
12413;DHT22;13877;18.896;-99.222;2023-03-23T02:57:51;25.10;19.90
12413;DHT22;13877;18.896;-99.222;2023-03-23T03:00:19;25.20;19.80
12413;DHT22;13877;18.896;-99.222;2023-03-23T03:02:49;25.20;19.60
12413;DHT22;13877;18.896;-99.222;2023-03-23T03:05:39;25.30;19.50
12413;DHT22;13877;18.896;-99.222;2023-03-23T03:13:39;25.30;19.20
12413;DHT22;13877;18.896;-99.222;2023-03-23T03:18:49;25.30;18.80
12413;DHT22;13877;18.896;-99.222;2023-03-23T03:21:23;25.30;18.80
12413;DHT22;13877;18.896;-99.222;2023-03-23T03:23:58;25.20;18.80
12413;DHT22;13877;18.896;-99.222;2023-03-23T03:26:30;25.20;19.00
12413;DHT22;13877;18.896;-99.222;2023-03-23T03:29:14;25.20;18.80
12413;DHT22;13877;18.896;-99.222;2023-03-23T03:31:47;25.10;18.90
12413;DHT22;13877;18.896;-99.222;2023-03-23T03:34:16;25.00;18.90
12413;DHT22;13877;18.896;-99.222;2023-03-23T03:36:48;24.90;19.30
12413;DHT22;13877;18.896;-99.222;2023-03-23T03:39:18;24.60;20.10
12413;DHT22;13877;18.896;-99.222;2023-03-23T03:41:48;24.20;20.30
12413;DHT22;13877;18.896;-99.222;2023-03-23T03:44:16;24.40;19.80
12413;DHT22;13877;18.896;-99.222;2023-03-23T03:46:45;24.30;20.30
12413;DHT22;13877;18.896;-99.222;2023-03-23T03:49:15;24.40;20.50
12413;DHT22;13877;18.896;-99.222;2023-03-23T03:51:42;24.20;20.50
12413;DHT22;13877;18.896;-99.222;2023-03-23T03:54:19;24.00;20.90
12413;DHT22;13877;18.896;-99.222;2023-03-23T03:56:46;23.80;21.20
12413;DHT22;13877;18.896;-99.222;2023-03-23T03:59:52;23.50;21.50
12413;DHT22;13877;18.896;-99.222;2023-03-23T04:02:37;23.10;22.30
12413;DHT22;13877;18.896;-99.222;2023-03-23T04:05:04;22.90;22.40
12413;DHT22;13877;18.896;-99.222;2023-03-23T04:07:33;22.80;22.60
12413;DHT22;13877;18.896;-99.222;2023-03-23T04:10:00;22.80;22.20
12413;DHT22;13877;18.896;-99.222;2023-03-23T04:12:27;22.80;21.90
12413;DHT22;13877;18.896;-99.222;2023-03-23T04:14:54;22.80;22.10
12413;DHT22;13877;18.896;-99.222;2023-03-23T04:17:23;22.90;22.30
12413;DHT22;13877;18.896;-99.222;2023-03-23T04:19:53;23.00;22.40
12413;DHT22;13877;18.896;-99.222;2023-03-23T04:22:26;23.20;21.40
12413;DHT22;13877;18.896;-99.222;2023-03-23T04:25:01;23.60;21.20
12413;DHT22;13877;18.896;-99.222;2023-03-23T04:27:37;23.60;20.80
12413;DHT22;13877;18.896;-99.222;2023-03-23T04:30:07;23.50;21.10
12413;DHT22;13877;18.896;-99.222;2023-03-23T04:32:45;23.40;20.90
12413;DHT22;13877;18.896;-99.222;2023-03-23T04:35:20;23.30;21.20
12413;DHT22;13877;18.896;-99.222;2023-03-23T04:37:54;23.10;21.60
12413;DHT22;13877;18.896;-99.222;2023-03-23T04:40:23;23.10;20.90
12413;DHT22;13877;18.896;-99.222;2023-03-23T04:43:02;23.20;21.20
12413;DHT22;13877;18.896;-99.222;2023-03-23T04:45:58;23.30;20.90
12413;DHT22;13877;18.896;-99.222;2023-03-23T04:48:29;23.30;20.90
12413;DHT22;13877;18.896;-99.222;2023-03-23T04:51:09;23.30;19.60
12413;DHT22;13877;18.896;-99.222;2023-03-23T04:53:40;23.30;21.00
12413;DHT22;13877;18.896;-99.222;2023-03-23T04:56:07;23.20;21.20
12413;DHT22;13877;18.896;-99.222;2023-03-23T04:58:42;23.10;21.40
12413;DHT22;13877;18.896;-99.222;2023-03-23T05:01:43;23.20;21.60
12413;DHT22;13877;18.896;-99.222;2023-03-23T05:04:19;23.30;21.70
12413;DHT22;13877;18.896;-99.222;2023-03-23T05:07:02;23.20;21.40
12413;DHT22;13877;18.896;-99.222;2023-03-23T05:09:31;23.10;21.40
12413;DHT22;13877;18.896;-99.222;2023-03-23T05:12:06;22.90;21.60
12413;DHT22;13877;18.896;-99.222;2023-03-23T05:14:42;22.80;22.20
12413;DHT22;13877;18.896;-99.222;2023-03-23T05:17:16;22.70;22.40
12413;DHT22;13877;18.896;-99.222;2023-03-23T05:19:47;22.60;22.50
12413;DHT22;13877;18.896;-99.222;2023-03-23T05:22:33;22.50;22.20
12413;DHT22;13877;18.896;-99.222;2023-03-23T05:25:04;22.70;22.10
12413;DHT22;13877;18.896;-99.222;2023-03-23T05:27:36;22.80;21.70
12413;DHT22;13877;18.896;-99.222;2023-03-23T05:30:13;22.80;21.30
12413;DHT22;13877;18.896;-99.222;2023-03-23T05:32:44;22.70;21.40
12413;DHT22;13877;18.896;-99.222;2023-03-23T05:35:44;22.60;21.20
12413;DHT22;13877;18.896;-99.222;2023-03-23T05:38:15;22.70;21.20
12413;DHT22;13877;18.896;-99.222;2023-03-23T05:40:43;22.60;21.10
12413;DHT22;13877;18.896;-99.222;2023-03-23T05:43:16;22.70;21.00
12413;DHT22;13877;18.896;-99.222;2023-03-23T05:46:06;22.70;20.90
12413;DHT22;13877;18.896;-99.222;2023-03-23T05:48:37;22.60;21.10
12413;DHT22;13877;18.896;-99.222;2023-03-23T05:51:09;22.50;22.10
12413;DHT22;13877;18.896;-99.222;2023-03-23T05:53:40;22.40;21.70
12413;DHT22;13877;18.896;-99.222;2023-03-23T05:56:08;22.30;21.80
12413;DHT22;13877;18.896;-99.222;2023-03-23T05:58:58;22.30;21.60
12413;DHT22;13877;18.896;-99.222;2023-03-23T06:01:27;22.30;21.70
12413;DHT22;13877;18.896;-99.222;2023-03-23T06:03:54;22.30;21.60
12413;DHT22;13877;18.896;-99.222;2023-03-23T06:06:34;22.30;21.70
12413;DHT22;13877;18.896;-99.222;2023-03-23T06:09:06;22.20;21.80
12413;DHT22;13877;18.896;-99.222;2023-03-23T06:12:03;22.20;21.60
12413;DHT22;13877;18.896;-99.222;2023-03-23T06:15:03;22.50;22.70
12413;DHT22;13877;18.896;-99.222;2023-03-23T06:17:51;22.40;22.90
12413;DHT22;13877;18.896;-99.222;2023-03-23T06:20:27;22.00;23.60
12413;DHT22;13877;18.896;-99.222;2023-03-23T06:22:54;21.80;24.30
12413;DHT22;13877;18.896;-99.222;2023-03-23T06:25:29;21.50;24.70
12413;DHT22;13877;18.896;-99.222;2023-03-23T06:27:57;21.40;24.40
12413;DHT22;13877;18.896;-99.222;2023-03-23T06:30:25;21.50;23.90
12413;DHT22;13877;18.896;-99.222;2023-03-23T06:32:54;21.70;23.40
12413;DHT22;13877;18.896;-99.222;2023-03-23T06:35:41;22.00;23.60
12413;DHT22;13877;18.896;-99.222;2023-03-23T06:38:20;22.00;22.90
12413;DHT22;13877;18.896;-99.222;2023-03-23T06:40:53;22.00;23.20
12413;DHT22;13877;18.896;-99.222;2023-03-23T06:43:22;21.80;23.20
12413;DHT22;13877;18.896;-99.222;2023-03-23T06:46:07;21.60;23.50
12413;DHT22;13877;18.896;-99.222;2023-03-23T06:48:57;21.50;23.70
12413;DHT22;13877;18.896;-99.222;2023-03-23T06:51:36;21.60;23.90
12413;DHT22;13877;18.896;-99.222;2023-03-23T06:54:04;21.70;23.50
12413;DHT22;13877;18.896;-99.222;2023-03-23T06:56:36;21.90;23.40
12413;DHT22;13877;18.896;-99.222;2023-03-23T06:59:03;22.10;23.30
12413;DHT22;13877;18.896;-99.222;2023-03-23T07:01:30;22.00;23.10
12413;DHT22;13877;18.896;-99.222;2023-03-23T07:04:00;21.90;23.40
12413;DHT22;13877;18.896;-99.222;2023-03-23T07:06:38;21.70;23.40
12413;DHT22;13877;18.896;-99.222;2023-03-23T07:09:07;21.60;23.20
12413;DHT22;13877;18.896;-99.222;2023-03-23T07:11:34;21.70;23.20
12413;DHT22;13877;18.896;-99.222;2023-03-23T07:14:10;21.70;23.30
12413;DHT22;13877;18.896;-99.222;2023-03-23T07:16:36;21.60;23.30
12413;DHT22;13877;18.896;-99.222;2023-03-23T07:19:03;21.60;23.30
12413;DHT22;13877;18.896;-99.222;2023-03-23T07:21:32;21.60;23.40
12413;DHT22;13877;18.896;-99.222;2023-03-23T07:23:59;21.60;22.90
12413;DHT22;13877;18.896;-99.222;2023-03-23T07:26:44;21.70;22.90
12413;DHT22;13877;18.896;-99.222;2023-03-23T07:29:12;21.80;22.80
12413;DHT22;13877;18.896;-99.222;2023-03-23T07:31:45;21.70;22.60
12413;DHT22;13877;18.896;-99.222;2023-03-23T07:34:14;21.80;22.70
12413;DHT22;13877;18.896;-99.222;2023-03-23T07:37:04;21.50;23.00
12413;DHT22;13877;18.896;-99.222;2023-03-23T07:39:35;21.40;22.90
12413;DHT22;13877;18.896;-99.222;2023-03-23T07:42:02;21.50;22.90
12413;DHT22;13877;18.896;-99.222;2023-03-23T07:44:42;21.40;22.90
12413;DHT22;13877;18.896;-99.222;2023-03-23T07:47:12;21.40;23.00
12413;DHT22;13877;18.896;-99.222;2023-03-23T07:49:40;21.40;23.00
12413;DHT22;13877;18.896;-99.222;2023-03-23T07:52:28;21.30;22.90
12413;DHT22;13877;18.896;-99.222;2023-03-23T07:54:56;21.40;23.10
12413;DHT22;13877;18.896;-99.222;2023-03-23T07:57:32;21.40;23.30
12413;DHT22;13877;18.896;-99.222;2023-03-23T08:00:04;21.30;23.60
12413;DHT22;13877;18.896;-99.222;2023-03-23T08:02:42;20.80;23.90
12413;DHT22;13877;18.896;-99.222;2023-03-23T08:05:29;20.60;24.20
12413;DHT22;13877;18.896;-99.222;2023-03-23T08:08:09;20.50;24.50
12413;DHT22;13877;18.896;-99.222;2023-03-23T08:11:15;20.40;24.70
12413;DHT22;13877;18.896;-99.222;2023-03-23T08:13:53;20.30;25.00
12413;DHT22;13877;18.896;-99.222;2023-03-23T08:16:40;20.40;25.00
12413;DHT22;13877;18.896;-99.222;2023-03-23T08:19:16;20.50;24.70
12413;DHT22;13877;18.896;-99.222;2023-03-23T08:22:04;20.30;25.40
12413;DHT22;13877;18.896;-99.222;2023-03-23T08:24:34;19.90;26.00
12413;DHT22;13877;18.896;-99.222;2023-03-23T08:27:23;19.50;25.90
12413;DHT22;13877;18.896;-99.222;2023-03-23T08:30:00;19.60;26.30
12413;DHT22;13877;18.896;-99.222;2023-03-23T08:33:03;19.90;25.90
12413;DHT22;13877;18.896;-99.222;2023-03-23T08:36:08;20.30;25.40
12413;DHT22;13877;18.896;-99.222;2023-03-23T08:38:53;20.30;25.00
12413;DHT22;13877;18.896;-99.222;2023-03-23T08:41:28;20.30;24.80
12413;DHT22;13877;18.896;-99.222;2023-03-23T08:43:55;20.30;24.70
12413;DHT22;13877;18.896;-99.222;2023-03-23T08:46:40;20.10;25.30
12413;DHT22;13877;18.896;-99.222;2023-03-23T08:49:21;20.00;25.70
12413;DHT22;13877;18.896;-99.222;2023-03-23T08:52:11;19.90;26.10
12413;DHT22;13877;18.896;-99.222;2023-03-23T08:54:57;19.90;25.20
12413;DHT22;13877;18.896;-99.222;2023-03-23T08:57:35;19.90;25.30
12413;DHT22;13877;18.896;-99.222;2023-03-23T09:00:22;20.00;24.90
12413;DHT22;13877;18.896;-99.222;2023-03-23T09:03:11;20.10;24.70
12413;DHT22;13877;18.896;-99.222;2023-03-23T09:06:03;20.20;24.20
12413;DHT22;13877;18.896;-99.222;2023-03-23T09:08:43;20.20;23.90
12413;DHT22;13877;18.896;-99.222;2023-03-23T09:11:11;20.30;24.00
12413;DHT22;13877;18.896;-99.222;2023-03-23T09:13:39;20.30;24.20
12413;DHT22;13877;18.896;-99.222;2023-03-23T09:16:07;20.30;23.90
12413;DHT22;13877;18.896;-99.222;2023-03-23T09:18:35;20.30;24.10
12413;DHT22;13877;18.896;-99.222;2023-03-23T09:21:03;20.30;23.90
12413;DHT22;13877;18.896;-99.222;2023-03-23T09:23:30;20.30;24.10
12413;DHT22;13877;18.896;-99.222;2023-03-23T09:26:00;20.20;23.90
12413;DHT22;13877;18.896;-99.222;2023-03-23T09:28:28;20.30;23.90
12413;DHT22;13877;18.896;-99.222;2023-03-23T09:30:56;20.30;23.60
12413;DHT22;13877;18.896;-99.222;2023-03-23T09:33:25;20.40;23.80
12413;DHT22;13877;18.896;-99.222;2023-03-23T09:35:52;20.40;23.70
12413;DHT22;13877;18.896;-99.222;2023-03-23T09:38:19;20.30;23.60
12413;DHT22;13877;18.896;-99.222;2023-03-23T09:40:49;20.40;23.50
12413;DHT22;13877;18.896;-99.222;2023-03-23T09:46:30;20.40;23.50
12413;DHT22;13877;18.896;-99.222;2023-03-23T09:49:20;20.40;23.40
12413;DHT22;13877;18.896;-99.222;2023-03-23T09:52:00;20.50;23.50
12413;DHT22;13877;18.896;-99.222;2023-03-23T09:55:05;20.40;23.30
12413;DHT22;13877;18.896;-99.222;2023-03-23T10:00:16;20.30;23.40
12413;DHT22;13877;18.896;-99.222;2023-03-23T10:03:02;20.30;23.50
12413;DHT22;13877;18.896;-99.222;2023-03-23T10:05:37;20.40;23.30
12413;DHT22;13877;18.896;-99.222;2023-03-23T10:08:14;20.40;23.40
12413;DHT22;13877;18.896;-99.222;2023-03-23T10:16:31;20.20;23.80
12413;DHT22;13877;18.896;-99.222;2023-03-23T10:21:50;20.00;24.00
12413;DHT22;13877;18.896;-99.222;2023-03-23T10:24:30;20.10;23.90
12413;DHT22;13877;18.896;-99.222;2023-03-23T10:30:13;19.90;24.00
12413;DHT22;13877;18.896;-99.222;2023-03-23T10:35:28;19.90;24.10
12413;DHT22;13877;18.896;-99.222;2023-03-23T10:38:05;19.90;24.00
12413;DHT22;13877;18.896;-99.222;2023-03-23T10:40:34;19.80;24.10
12413;DHT22;13877;18.896;-99.222;2023-03-23T10:43:02;19.80;24.20
12413;DHT22;13877;18.896;-99.222;2023-03-23T10:45:31;19.90;24.80
12413;DHT22;13877;18.896;-99.222;2023-03-23T10:48:27;19.80;24.40
12413;DHT22;13877;18.896;-99.222;2023-03-23T10:51:02;19.70;24.60
12413;DHT22;13877;18.896;-99.222;2023-03-23T10:53:42;19.60;24.70
12413;DHT22;13877;18.896;-99.222;2023-03-23T10:56:27;19.50;24.70
12413;DHT22;13877;18.896;-99.222;2023-03-23T10:58:55;19.40;25.00
12413;DHT22;13877;18.896;-99.222;2023-03-23T11:01:33;19.40;24.90
12413;DHT22;13877;18.896;-99.222;2023-03-23T11:04:01;19.40;24.90
12413;DHT22;13877;18.896;-99.222;2023-03-23T11:06:33;19.40;24.80
12413;DHT22;13877;18.896;-99.222;2023-03-23T11:09:38;19.50;24.80
12413;DHT22;13877;18.896;-99.222;2023-03-23T11:12:17;19.50;24.70
12413;DHT22;13877;18.896;-99.222;2023-03-23T11:14:45;19.50;24.70
12413;DHT22;13877;18.896;-99.222;2023-03-23T11:17:23;19.50;24.80
12413;DHT22;13877;18.896;-99.222;2023-03-23T11:19:51;19.60;24.80
12413;DHT22;13877;18.896;-99.222;2023-03-23T11:22:27;19.60;24.50
12413;DHT22;13877;18.896;-99.222;2023-03-23T11:24:56;19.60;24.60
12413;DHT22;13877;18.896;-99.222;2023-03-23T11:27:27;19.60;24.60
12413;DHT22;13877;18.896;-99.222;2023-03-23T11:32:45;19.60;24.90
12413;DHT22;13877;18.896;-99.222;2023-03-23T11:35:25;19.50;24.80
12413;DHT22;13877;18.896;-99.222;2023-03-23T11:37:55;19.50;25.00
12413;DHT22;13877;18.896;-99.222;2023-03-23T11:40:26;19.50;25.10
12413;DHT22;13877;18.896;-99.222;2023-03-23T11:42:59;19.40;25.10
12413;DHT22;13877;18.896;-99.222;2023-03-23T11:45:35;19.50;25.30
12413;DHT22;13877;18.896;-99.222;2023-03-23T11:54:04;19.40;25.40
12413;DHT22;13877;18.896;-99.222;2023-03-23T11:56:33;19.50;25.30
12413;DHT22;13877;18.896;-99.222;2023-03-23T11:59:02;19.50;25.30
12413;DHT22;13877;18.896;-99.222;2023-03-23T12:06:52;19.40;25.80
12413;DHT22;13877;18.896;-99.222;2023-03-23T12:15:26;19.50;25.10
12413;DHT22;13877;18.896;-99.222;2023-03-23T12:18:03;19.40;24.90
12413;DHT22;13877;18.896;-99.222;2023-03-23T12:20:48;19.40;25.10
12413;DHT22;13877;18.896;-99.222;2023-03-23T12:29:12;19.30;25.30
12413;DHT22;13877;18.896;-99.222;2023-03-23T12:37:32;19.30;25.50
12413;DHT22;13877;18.896;-99.222;2023-03-23T12:40:19;19.30;25.60
12413;DHT22;13877;18.896;-99.222;2023-03-23T12:48:28;19.30;25.80
12413;DHT22;13877;18.896;-99.222;2023-03-23T12:59:29;19.50;26.00
12413;DHT22;13877;18.896;-99.222;2023-03-23T13:02:37;19.50;25.90
12413;DHT22;13877;18.896;-99.222;2023-03-23T13:04:44;19.50;26.20
12413;DHT22;13877;18.896;-99.222;2023-03-23T13:07:21;19.60;26.90
12413;DHT22;13877;18.896;-99.222;2023-03-23T13:12:42;19.60;26.30
12413;DHT22;13877;18.896;-99.222;2023-03-23T13:17:59;20.00;25.80
12413;DHT22;13877;18.896;-99.222;2023-03-23T13:23:39;20.30;25.60
12413;DHT22;13877;18.896;-99.222;2023-03-23T13:26:11;20.40;25.70
12413;DHT22;13877;18.896;-99.222;2023-03-23T13:29:01;20.60;25.80
12413;DHT22;13877;18.896;-99.222;2023-03-23T13:31:38;20.80;25.70
12413;DHT22;13877;18.896;-99.222;2023-03-23T13:34:25;21.00;25.50
12413;DHT22;13877;18.896;-99.222;2023-03-23T13:37:01;21.20;25.60
12413;DHT22;13877;18.896;-99.222;2023-03-23T13:39:34;21.30;25.80
12413;DHT22;13877;18.896;-99.222;2023-03-23T13:47:26;21.80;25.60
12413;DHT22;13877;18.896;-99.222;2023-03-23T13:49:59;22.10;25.30
12413;DHT22;13877;18.896;-99.222;2023-03-23T13:55:20;22.50;25.00
12413;DHT22;13877;18.896;-99.222;2023-03-23T13:57:54;22.60;25.30
12413;DHT22;13877;18.896;-99.222;2023-03-23T14:11:09;24.00;23.90
12413;DHT22;13877;18.896;-99.222;2023-03-23T14:19:26;24.70;22.90
12413;DHT22;13877;18.896;-99.222;2023-03-23T14:22:00;25.00;22.60
12413;DHT22;13877;18.896;-99.222;2023-03-23T14:24:29;25.50;21.10
12413;DHT22;13877;18.896;-99.222;2023-03-23T14:27:10;25.30;20.90
12413;DHT22;13877;18.896;-99.222;2023-03-23T14:29:39;25.40;20.70
12413;DHT22;13877;18.896;-99.222;2023-03-23T14:32:14;25.80;20.80
12413;DHT22;13877;18.896;-99.222;2023-03-23T14:34:43;26.10;20.80
12413;DHT22;13877;18.896;-99.222;2023-03-23T14:37:15;25.80;20.80
12413;DHT22;13877;18.896;-99.222;2023-03-23T14:39:51;25.90;20.80
12413;DHT22;13877;18.896;-99.222;2023-03-23T14:42:31;25.90;21.40
12413;DHT22;13877;18.896;-99.222;2023-03-23T14:45:00;26.00;19.90
12413;DHT22;13877;18.896;-99.222;2023-03-23T14:47:37;26.20;19.50
12413;DHT22;13877;18.896;-99.222;2023-03-23T14:50:21;26.00;19.80
12413;DHT22;13877;18.896;-99.222;2023-03-23T14:52:49;25.90;19.40
12413;DHT22;13877;18.896;-99.222;2023-03-23T14:55:21;25.80;19.40
12413;DHT22;13877;18.896;-99.222;2023-03-23T14:57:50;25.50;20.20
12413;DHT22;13877;18.896;-99.222;2023-03-23T15:00:23;24.70;21.30
12413;DHT22;13877;18.896;-99.222;2023-03-23T15:02:53;24.70;21.60
12413;DHT22;13877;18.896;-99.222;2023-03-23T15:05:34;24.90;22.10
12413;DHT22;13877;18.896;-99.222;2023-03-23T15:08:06;25.20;21.40
12413;DHT22;13877;18.896;-99.222;2023-03-23T15:10:34;25.40;20.80
12413;DHT22;13877;18.896;-99.222;2023-03-23T15:13:01;25.40;20.50
12413;DHT22;13877;18.896;-99.222;2023-03-23T15:15:31;25.20;21.10
12413;DHT22;13877;18.896;-99.222;2023-03-23T15:18:02;25.40;21.50
12413;DHT22;13877;18.896;-99.222;2023-03-23T15:20:47;25.40;21.20
12413;DHT22;13877;18.896;-99.222;2023-03-23T15:23:17;25.70;21.60
12413;DHT22;13877;18.896;-99.222;2023-03-23T15:25:55;25.80;21.10
12413;DHT22;13877;18.896;-99.222;2023-03-23T15:28:30;26.50;20.10
12413;DHT22;13877;18.896;-99.222;2023-03-23T15:31:04;27.20;19.70
12413;DHT22;13877;18.896;-99.222;2023-03-23T15:33:39;27.50;19.10
12413;DHT22;13877;18.896;-99.222;2023-03-23T15:36:18;27.70;19.10
12413;DHT22;13877;18.896;-99.222;2023-03-23T15:38:47;28.10;18.50
12413;DHT22;13877;18.896;-99.222;2023-03-23T15:41:30;28.10;19.30
12413;DHT22;13877;18.896;-99.222;2023-03-23T15:44:11;27.80;19.60
12413;DHT22;13877;18.896;-99.222;2023-03-23T15:47:00;27.60;21.50
12413;DHT22;13877;18.896;-99.222;2023-03-23T15:49:29;28.20;19.90
12413;DHT22;13877;18.896;-99.222;2023-03-23T15:51:56;28.30;20.50
12413;DHT22;13877;18.896;-99.222;2023-03-23T15:54:24;27.40;21.00
12413;DHT22;13877;18.896;-99.222;2023-03-23T15:56:56;27.50;21.90
12413;DHT22;13877;18.896;-99.222;2023-03-23T15:59:23;27.70;21.70
12413;DHT22;13877;18.896;-99.222;2023-03-23T16:01:51;27.70;21.10
12413;DHT22;13877;18.896;-99.222;2023-03-23T16:04:19;27.60;21.30
12413;DHT22;13877;18.896;-99.222;2023-03-23T16:06:55;27.00;21.60
12413;DHT22;13877;18.896;-99.222;2023-03-23T16:09:23;28.20;21.10
12413;DHT22;13877;18.896;-99.222;2023-03-23T16:11:50;28.40;20.20
12413;DHT22;13877;18.896;-99.222;2023-03-23T16:14:17;28.40;20.60
12413;DHT22;13877;18.896;-99.222;2023-03-23T16:16:47;28.60;19.50
12413;DHT22;13877;18.896;-99.222;2023-03-23T16:19:16;28.80;19.10
12413;DHT22;13877;18.896;-99.222;2023-03-23T16:21:43;28.50;20.00
12413;DHT22;13877;18.896;-99.222;2023-03-23T16:24:11;28.20;20.40
12413;DHT22;13877;18.896;-99.222;2023-03-23T16:26:39;29.30;19.80
12413;DHT22;13877;18.896;-99.222;2023-03-23T16:29:14;29.40;19.90
12413;DHT22;13877;18.896;-99.222;2023-03-23T16:31:41;28.80;20.30
12413;DHT22;13877;18.896;-99.222;2023-03-23T16:34:08;28.80;20.20
12413;DHT22;13877;18.896;-99.222;2023-03-23T16:36:37;30.00;18.40
12413;DHT22;13877;18.896;-99.222;2023-03-23T16:39:03;29.90;19.40
12413;DHT22;13877;18.896;-99.222;2023-03-23T16:41:31;30.00;19.20
12413;DHT22;13877;18.896;-99.222;2023-03-23T16:43:58;29.90;19.30
12413;DHT22;13877;18.896;-99.222;2023-03-23T16:46:25;28.90;19.90
12413;DHT22;13877;18.896;-99.222;2023-03-23T16:48:51;29.30;19.50
12413;DHT22;13877;18.896;-99.222;2023-03-23T16:51:19;29.30;19.30
12413;DHT22;13877;18.896;-99.222;2023-03-23T16:53:46;29.70;19.70
12413;DHT22;13877;18.896;-99.222;2023-03-23T16:56:14;29.50;19.40
12413;DHT22;13877;18.896;-99.222;2023-03-23T16:58:40;30.30;19.20
12413;DHT22;13877;18.896;-99.222;2023-03-23T17:01:07;30.20;18.80
12413;DHT22;13877;18.896;-99.222;2023-03-23T17:03:34;30.80;19.00
12413;DHT22;13877;18.896;-99.222;2023-03-23T17:06:02;31.00;19.50
12413;DHT22;13877;18.896;-99.222;2023-03-23T17:08:29;30.70;19.20
12413;DHT22;13877;18.896;-99.222;2023-03-23T17:10:57;30.60;19.30
12413;DHT22;13877;18.896;-99.222;2023-03-23T17:13:24;30.20;19.70
12413;DHT22;13877;18.896;-99.222;2023-03-23T17:15:54;30.70;19.40
12413;DHT22;13877;18.896;-99.222;2023-03-23T17:18:25;30.70;19.90
12413;DHT22;13877;18.896;-99.222;2023-03-23T17:20:54;30.70;20.90
12413;DHT22;13877;18.896;-99.222;2023-03-23T17:23:21;30.00;20.90
12413;DHT22;13877;18.896;-99.222;2023-03-23T17:25:48;30.70;21.20
12413;DHT22;13877;18.896;-99.222;2023-03-23T17:28:15;30.60;21.60
12413;DHT22;13877;18.896;-99.222;2023-03-23T17:30:43;29.90;21.70
12413;DHT22;13877;18.896;-99.222;2023-03-23T17:33:11;30.20;22.00
12413;DHT22;13877;18.896;-99.222;2023-03-23T17:35:40;30.40;21.80
12413;DHT22;13877;18.896;-99.222;2023-03-23T17:38:08;30.60;21.30
12413;DHT22;13877;18.896;-99.222;2023-03-23T17:40:37;30.70;21.40